createdAt,value
2022-09-23T00:00:16.650Z,358
2022-09-23T00:01:21.439Z,360
2022-09-23T00:02:07.148Z,358
2022-09-23T00:03:16.156Z,360
2022-09-23T00:04:15.042Z,369
2022-09-23T00:05:16.232Z,359
2022-09-23T00:06:07.314Z,357
2022-09-23T00:07:07.357Z,351
2022-09-23T00:08:15.746Z,357
2022-09-23T00:09:06.860Z,355
2022-09-23T00:10:07.729Z,363
2022-09-23T00:11:07.531Z,365
2022-09-23T00:12:16.041Z,350
2022-09-23T00:13:16.242Z,360
2022-09-23T00:14:06.303Z,362
2022-09-23T00:15:15.172Z,360
2022-09-23T00:16:16.297Z,354
2022-09-23T00:17:15.989Z,351
2022-09-23T00:19:15.422Z,343
2022-09-23T00:20:15.898Z,340
2022-09-23T00:21:16.438Z,348
2022-09-23T00:22:16.008Z,354
2022-09-23T00:23:16.199Z,352
2022-09-23T00:24:15.053Z,347
2022-09-23T00:25:15.732Z,356
2022-09-23T00:26:16.245Z,367
2022-09-23T00:27:16.136Z,372
2022-09-23T00:28:15.636Z,371
2022-09-23T00:29:15.776Z,358
2022-09-23T00:31:15.663Z,356
2022-09-23T00:32:16.625Z,362
2022-09-23T00:33:07.641Z,359
2022-09-23T00:34:15.252Z,352
2022-09-23T00:35:16.083Z,357
2022-09-23T00:36:06.383Z,368
2022-09-23T00:37:16.028Z,369
2022-09-23T00:38:07.795Z,370
2022-09-23T00:39:15.503Z,355
2022-09-23T00:40:16.041Z,348
2022-09-23T00:41:15.559Z,355
2022-09-23T00:42:15.983Z,364
2022-09-23T00:43:15.614Z,363
2022-09-23T00:44:14.365Z,360
2022-09-23T00:46:15.761Z,359
2022-09-23T00:47:15.623Z,356
2022-09-23T00:48:16.075Z,358
2022-09-23T00:49:15.223Z,365
2022-09-23T00:50:16.396Z,351
2022-09-23T00:51:16.208Z,345
2022-09-23T00:52:15.670Z,358
2022-09-23T00:53:16.623Z,352
2022-09-23T00:54:15.505Z,358
2022-09-23T00:55:15.824Z,357
2022-09-23T00:56:16.265Z,352
2022-09-23T00:57:16.189Z,354
2022-09-23T00:58:15.732Z,355
2022-09-23T01:00:16.264Z,360
2022-09-23T01:01:15.762Z,351
2022-09-23T01:02:16.579Z,353
2022-09-23T01:03:07.415Z,358
2022-09-23T01:04:15.106Z,363
2022-09-23T01:05:16.083Z,364
2022-09-23T01:06:16.074Z,365
2022-09-23T01:08:15.892Z,371
2022-09-23T01:09:16.595Z,365
2022-09-23T01:10:16.209Z,351
2022-09-23T01:11:06.632Z,361
2022-09-23T01:12:10.326Z,360
2022-09-23T01:13:15.904Z,365
2022-09-23T01:14:07.526Z,366
2022-09-23T01:15:15.717Z,354
2022-09-23T01:16:07.926Z,356
2022-09-23T01:17:07.282Z,365
2022-09-23T01:18:15.442Z,360
2022-09-23T01:19:16.580Z,372
2022-09-23T01:20:16.186Z,360
2022-09-23T01:21:15.362Z,362
2022-09-23T01:22:07.929Z,374
2022-09-23T01:23:07.326Z,364
2022-09-23T01:24:15.058Z,360
2022-09-23T01:25:16.246Z,367
2022-09-23T01:26:15.957Z,365
2022-09-23T01:27:07.255Z,366
2022-09-23T01:28:06.821Z,370
2022-09-23T01:29:15.223Z,374
2022-09-23T01:30:14.839Z,377
2022-09-23T01:31:16.005Z,374
2022-09-23T01:32:15.864Z,370
2022-09-23T01:33:16.528Z,368
2022-09-23T01:34:15.458Z,373
2022-09-23T01:35:07.317Z,377
2022-09-23T01:36:15.659Z,376
2022-09-23T01:37:15.523Z,372
2022-09-23T01:38:15.842Z,371
2022-09-23T01:39:15.045Z,373
2022-09-23T01:41:15.996Z,374
2022-09-23T01:42:15.444Z,383
2022-09-23T01:43:16.501Z,381
2022-09-23T01:44:15.602Z,375
2022-09-23T01:45:15.493Z,358
2022-09-23T01:46:07.692Z,371
2022-09-23T01:47:16.395Z,377
2022-09-23T01:48:16.276Z,378
2022-09-23T01:49:06.557Z,375
2022-09-23T01:50:15.911Z,372
2022-09-23T01:51:16.688Z,366
2022-09-23T01:52:15.771Z,365
2022-09-23T01:53:15.960Z,370
2022-09-23T01:54:14.375Z,366
2022-09-23T01:55:16.086Z,365
2022-09-23T01:56:15.919Z,363
2022-09-23T01:57:16.608Z,371
2022-09-23T01:58:15.903Z,366
2022-09-23T01:59:06.728Z,367
2022-09-23T02:00:07.036Z,364
2022-09-23T02:01:07.400Z,366
2022-09-23T02:02:07.707Z,363
2022-09-23T02:03:16.197Z,365
2022-09-23T02:04:06.914Z,369
2022-09-23T02:06:15.117Z,365
2022-09-23T02:07:07.419Z,359
2022-09-23T02:08:06.607Z,356
2022-09-23T02:09:16.680Z,355
2022-09-23T02:10:15.430Z,363
2022-09-23T02:13:15.866Z,359
2022-09-23T02:14:16.126Z,364
2022-09-23T02:15:16.125Z,361
2022-09-23T02:16:14.959Z,359
2022-09-23T02:17:16.665Z,361
2022-09-23T02:18:16.301Z,365
2022-09-23T02:19:15.910Z,364
2022-09-23T02:20:16.485Z,371
2022-09-23T02:21:16.100Z,378
2022-09-23T02:22:07.675Z,370
2022-09-23T02:23:16.439Z,365
2022-09-23T02:24:07.405Z,360
2022-09-23T02:25:15.872Z,369
2022-09-23T02:26:15.893Z,370
2022-09-23T02:27:16.428Z,374
2022-09-23T02:28:15.473Z,367
2022-09-23T02:29:07.085Z,360
2022-09-23T02:30:15.391Z,368
2022-09-23T02:32:15.435Z,365
2022-09-23T02:33:15.894Z,377
2022-09-23T02:34:15.512Z,378
2022-09-23T02:35:15.972Z,376
2022-09-23T02:36:15.611Z,362
2022-09-23T02:37:07.827Z,364
2022-09-23T02:38:16.765Z,371
2022-09-23T02:39:15.471Z,366
2022-09-23T02:40:15.722Z,358
2022-09-23T02:41:16.140Z,356
2022-09-23T02:43:07.452Z,357
2022-09-23T02:44:15.169Z,363
2022-09-23T02:45:16.605Z,356
2022-09-23T02:46:15.816Z,363
2022-09-23T02:47:07.476Z,366
2022-09-23T02:48:15.544Z,361
2022-09-23T02:49:14.869Z,359
2022-09-23T02:50:15.526Z,345
2022-09-23T02:51:06.795Z,346
2022-09-23T02:52:15.461Z,354
2022-09-23T02:53:16.216Z,352
2022-09-23T02:54:15.445Z,358
2022-09-23T02:55:16.223Z,366
2022-09-23T02:56:07.083Z,364
2022-09-23T02:57:16.002Z,365
2022-09-23T02:58:15.128Z,364
2022-09-23T02:59:15.649Z,360
2022-09-23T03:00:15.376Z,362
2022-09-23T03:01:15.587Z,358
2022-09-23T03:02:07.007Z,352
2022-09-23T03:03:16.011Z,355
2022-09-23T03:04:14.841Z,356
2022-09-23T03:05:07.657Z,365
2022-09-23T03:06:15.731Z,352
2022-09-23T03:07:15.927Z,357
2022-09-23T03:08:15.626Z,358
2022-09-23T03:09:15.796Z,360
2022-09-23T03:10:15.936Z,357
2022-09-23T03:11:15.781Z,352
2022-09-23T03:12:07.496Z,368
2022-09-23T03:13:16.363Z,372
2022-09-23T03:14:14.869Z,380
2022-09-23T03:15:15.510Z,379
2022-09-23T03:16:07.181Z,373
2022-09-23T03:17:07.238Z,358
2022-09-23T03:18:15.761Z,364
2022-09-23T03:19:16.080Z,373
2022-09-23T03:20:15.694Z,375
2022-09-23T03:21:16.412Z,372
2022-09-23T03:22:16.029Z,368
2022-09-23T03:23:07.301Z,361
2022-09-23T03:24:15.157Z,360
2022-09-23T03:25:16.593Z,365
2022-09-23T03:26:16.005Z,369
2022-09-23T03:28:15.687Z,371
2022-09-23T03:29:16.358Z,369
2022-09-23T03:30:16.134Z,358
2022-09-23T03:31:15.808Z,353
2022-09-23T03:32:16.119Z,355
2022-09-23T03:33:15.620Z,368
2022-09-23T03:34:16.611Z,376
2022-09-23T03:35:16.100Z,377
2022-09-23T03:36:06.134Z,382
2022-09-23T03:37:15.762Z,387
2022-09-23T03:38:06.849Z,381
2022-09-23T03:39:14.860Z,385
2022-09-23T03:40:07.528Z,386
2022-09-23T03:41:08.139Z,389
2022-09-23T03:42:16.164Z,381
2022-09-23T03:43:16.493Z,378
2022-09-23T03:44:05.909Z,376
2022-09-23T03:45:07.401Z,368
2022-09-23T03:46:15.493Z,370
2022-09-23T03:47:15.453Z,379
2022-09-23T03:48:15.848Z,386
2022-09-23T03:49:15.303Z,376
2022-09-23T03:50:07.483Z,369
2022-09-23T03:51:06.926Z,373
2022-09-23T03:52:16.508Z,383
2022-09-23T03:53:16.035Z,391
2022-09-23T03:54:15.059Z,390
2022-09-23T03:55:16.081Z,378
2022-09-23T03:56:14.773Z,382
2022-09-23T03:57:16.060Z,384
2022-09-23T03:58:15.670Z,374
2022-09-23T03:59:16.211Z,378
2022-09-23T04:00:16.316Z,383
2022-09-23T04:01:15.609Z,390
2022-09-23T04:03:11.532Z,391
2022-09-23T04:04:14.620Z,382
2022-09-23T04:05:16.769Z,378
2022-09-23T04:06:15.651Z,373
2022-09-23T04:07:15.985Z,369
2022-09-23T04:08:15.939Z,375
2022-09-23T04:09:21.884Z,381
2022-09-23T04:10:15.556Z,383
2022-09-23T04:12:15.380Z,390
2022-09-23T04:13:16.040Z,399
2022-09-23T04:14:16.647Z,402
2022-09-23T04:16:16.108Z,392
2022-09-23T04:17:16.345Z,386
2022-09-23T04:18:15.628Z,400
2022-09-23T04:19:15.383Z,399
2022-09-23T04:20:16.237Z,402
2022-09-23T04:21:07.579Z,394
2022-09-23T04:22:16.278Z,386
2022-09-23T04:23:15.780Z,381
2022-09-23T04:24:15.783Z,389
2022-09-23T04:25:07.411Z,387
2022-09-23T04:26:16.725Z,385
2022-09-23T04:27:16.014Z,391
2022-09-23T04:28:15.774Z,380
2022-09-23T04:29:16.323Z,386
2022-09-23T04:30:15.565Z,401
2022-09-23T04:31:16.088Z,408
2022-09-23T04:32:07.275Z,404
2022-09-23T04:33:15.949Z,402
2022-09-23T04:34:14.290Z,399
2022-09-23T04:35:16.178Z,397
2022-09-23T04:36:06.962Z,389
2022-09-23T04:37:15.841Z,402
2022-09-23T04:38:06.820Z,396
2022-09-23T04:39:07.286Z,388
2022-09-23T04:40:14.980Z,389
2022-09-23T04:41:16.101Z,397
2022-09-23T04:43:18.050Z,396
2022-09-23T04:44:14.865Z,389
2022-09-23T04:45:16.679Z,378
2022-09-23T04:46:15.785Z,379
2022-09-23T04:47:15.664Z,385
2022-09-23T04:48:16.538Z,379
2022-09-23T04:49:15.432Z,380
2022-09-23T04:50:06.556Z,386
2022-09-23T04:51:15.689Z,376
2022-09-23T04:52:15.759Z,379
2022-09-23T04:53:15.839Z,383
2022-09-23T04:54:14.890Z,382
2022-09-23T04:55:16.550Z,386
2022-09-23T04:56:15.712Z,384
2022-09-23T04:57:15.671Z,380
2022-09-23T04:58:16.129Z,384
2022-09-23T05:00:15.854Z,383
2022-09-23T05:01:16.638Z,377
2022-09-23T05:02:16.127Z,388
2022-09-23T05:03:15.915Z,385
2022-09-23T05:04:15.453Z,378
2022-09-23T05:05:07.537Z,372
2022-09-23T05:06:15.652Z,367
2022-09-23T05:08:15.585Z,369
2022-09-23T05:09:15.459Z,378
2022-09-23T05:10:06.921Z,386
2022-09-23T05:11:16.118Z,382
2022-09-23T05:12:06.628Z,371
2022-09-23T05:13:16.299Z,374
2022-09-23T05:14:14.641Z,366
2022-09-23T05:15:16.544Z,368
2022-09-23T05:16:07.634Z,371
2022-09-23T05:17:07.789Z,373
2022-09-23T05:18:07.337Z,365
2022-09-23T05:19:15.063Z,369
2022-09-23T05:20:16.634Z,372
2022-09-23T05:21:16.327Z,381
2022-09-23T05:22:15.915Z,375
2022-09-23T05:23:07.851Z,371
2022-09-23T05:24:14.627Z,370
2022-09-23T05:25:16.155Z,362
2022-09-23T05:26:15.829Z,364
2022-09-23T05:27:07.306Z,367
2022-09-23T05:28:15.611Z,370
2022-09-23T05:29:15.718Z,365
2022-09-23T05:30:15.975Z,370
2022-09-23T05:31:19.688Z,375
2022-09-23T05:32:16.309Z,381
2022-09-23T05:33:16.168Z,382
2022-09-23T05:34:07.390Z,380
2022-09-23T05:35:15.731Z,377
2022-09-23T05:36:21.696Z,381
2022-09-23T05:37:16.261Z,382
2022-09-23T05:39:16.643Z,392
2022-09-23T05:40:16.743Z,390
2022-09-23T05:41:07.854Z,386
2022-09-23T05:42:16.151Z,389
2022-09-23T05:43:16.273Z,388
2022-09-23T05:45:15.980Z,393
2022-09-23T05:47:16.228Z,395
2022-09-23T05:48:07.507Z,396
2022-09-23T05:49:07.686Z,384
2022-09-23T05:50:15.769Z,382
2022-09-23T05:51:07.473Z,387
2022-09-23T05:52:16.048Z,392
2022-09-23T05:53:15.968Z,383
2022-09-23T05:54:16.801Z,380
2022-09-23T05:55:07.676Z,377
2022-09-23T05:56:16.372Z,379
2022-09-23T05:57:21.215Z,382
2022-09-23T05:58:15.877Z,380
2022-09-23T06:00:07.762Z,393
2022-09-23T06:01:16.278Z,389
2022-09-23T06:02:21.068Z,380
2022-09-23T06:03:15.858Z,388
2022-09-23T06:04:16.362Z,377
2022-09-23T06:06:06.970Z,388
2022-09-23T06:07:15.902Z,389
2022-09-23T06:08:16.542Z,387
2022-09-23T06:09:16.144Z,393
2022-09-23T06:10:15.679Z,396
2022-09-23T06:11:16.569Z,394
2022-09-23T06:12:16.288Z,388
2022-09-23T06:13:15.710Z,385
2022-09-23T06:14:16.526Z,390
2022-09-23T06:15:15.922Z,394
2022-09-23T06:16:15.977Z,392
2022-09-23T06:17:16.402Z,393
2022-09-23T06:18:21.133Z,407
2022-09-23T06:19:15.835Z,408
2022-09-23T06:20:16.555Z,393
2022-09-23T06:21:15.918Z,402
2022-09-23T06:22:16.315Z,408
2022-09-23T06:23:16.281Z,413
2022-09-23T06:24:19.939Z,416
2022-09-23T06:25:16.834Z,418
2022-09-23T06:26:15.924Z,417
2022-09-23T06:27:15.714Z,407
2022-09-23T06:28:16.473Z,416
2022-09-23T06:29:16.229Z,427
2022-09-23T06:30:15.789Z,435
2022-09-23T06:31:12.283Z,425
2022-09-23T06:32:16.349Z,429
2022-09-23T06:34:17.181Z,423
2022-09-23T06:35:27.628Z,429
2022-09-23T06:36:07.064Z,430
2022-09-23T06:37:24.278Z,436
2022-09-23T06:38:16.391Z,437
2022-09-23T06:39:16.563Z,433
2022-09-23T06:40:15.969Z,449
2022-09-23T06:41:17.278Z,440
2022-09-23T06:42:15.905Z,438
2022-09-23T06:43:15.773Z,437
2022-09-23T06:44:15.697Z,424
2022-09-23T06:45:15.816Z,409
2022-09-23T06:46:15.799Z,410
2022-09-23T06:47:16.395Z,418
2022-09-23T06:49:15.514Z,410
2022-09-23T06:50:16.350Z,409
2022-09-23T06:51:15.855Z,414
2022-09-23T06:52:07.112Z,421
2022-09-23T06:53:16.059Z,426
2022-09-23T06:54:15.733Z,424
2022-09-23T06:55:15.614Z,433
2022-09-23T06:56:16.714Z,423
2022-09-23T06:57:07.735Z,420
2022-09-23T06:58:16.377Z,423
2022-09-23T06:59:15.287Z,417
2022-09-23T07:00:15.298Z,425
2022-09-23T07:01:16.551Z,423
2022-09-23T07:02:15.595Z,422
2022-09-23T07:03:07.170Z,418
2022-09-23T07:04:15.065Z,414
2022-09-23T07:05:15.927Z,410
2022-09-23T07:06:15.863Z,409
2022-09-23T07:07:07.121Z,412
2022-09-23T07:08:15.521Z,421
2022-09-23T07:09:15.530Z,409
2022-09-23T07:10:15.947Z,407
2022-09-23T07:11:16.444Z,403
2022-09-23T07:12:16.155Z,399
2022-09-23T07:13:18.689Z,397
2022-09-23T07:14:16.806Z,398
2022-09-23T07:15:16.311Z,401
2022-09-23T07:16:15.812Z,389
2022-09-23T07:17:16.629Z,386
2022-09-23T07:18:15.869Z,380
2022-09-23T07:19:07.342Z,366
2022-09-23T07:21:16.050Z,369
2022-09-23T07:22:15.948Z,364
2022-09-23T07:23:06.632Z,366
2022-09-23T07:24:07.485Z,368
2022-09-23T07:27:15.746Z,357
2022-09-23T07:28:16.639Z,342
2022-09-23T07:29:07.111Z,346
2022-09-23T07:30:27.226Z,355
2022-09-23T07:31:18.030Z,353
2022-09-23T07:32:18.282Z,352
2022-09-23T07:33:32.750Z,340
2022-09-23T07:34:15.801Z,345
2022-09-23T07:36:16.386Z,338
2022-09-23T07:37:15.760Z,341
2022-09-23T07:38:15.569Z,340
2022-09-23T07:40:15.597Z,342
2022-09-23T07:41:07.821Z,345
2022-09-23T07:42:16.814Z,346
2022-09-23T07:43:07.673Z,340
2022-09-23T07:44:16.521Z,343
2022-09-23T07:45:16.120Z,335
2022-09-23T07:46:15.402Z,347
2022-09-23T07:47:16.062Z,353
2022-09-23T07:48:07.441Z,354
2022-09-23T07:49:16.017Z,358
2022-09-23T07:50:16.476Z,351
2022-09-23T07:51:16.297Z,345
2022-09-23T07:52:15.805Z,346
2022-09-23T07:53:16.391Z,347
2022-09-23T07:54:08.018Z,344
2022-09-23T07:55:18.893Z,340
2022-09-23T07:56:16.043Z,353
2022-09-23T07:57:16.653Z,352
2022-09-23T07:58:16.326Z,353
2022-09-23T07:59:15.888Z,345
2022-09-23T08:00:16.846Z,354
2022-09-23T08:01:16.346Z,350
2022-09-23T08:02:15.831Z,343
2022-09-23T08:03:16.309Z,345
2022-09-23T08:04:15.977Z,339
2022-09-23T08:05:15.496Z,341
2022-09-23T08:06:16.772Z,331
2022-09-23T08:07:16.376Z,346
2022-09-23T08:08:07.662Z,352
2022-09-23T08:09:08.138Z,346
2022-09-23T08:10:15.754Z,337
2022-09-23T08:11:07.470Z,342
2022-09-23T08:12:20.323Z,344
2022-09-23T08:13:15.879Z,333
2022-09-23T08:14:15.797Z,337
2022-09-23T08:15:16.270Z,341
2022-09-23T08:16:15.814Z,346
2022-09-23T08:17:16.553Z,354
2022-09-23T08:18:16.033Z,358
2022-09-23T08:19:07.518Z,355
2022-09-23T08:20:16.070Z,350
2022-09-23T08:21:07.733Z,359
2022-09-23T08:22:15.522Z,358
2022-09-23T08:23:16.477Z,369
2022-09-23T08:25:16.388Z,351
2022-09-23T08:26:25.011Z,349
2022-09-23T08:27:16.091Z,343
2022-09-23T08:28:15.669Z,338
2022-09-23T08:29:16.113Z,341
2022-09-23T08:30:15.991Z,343
2022-09-23T08:31:15.944Z,350
2022-09-23T08:32:16.629Z,344
2022-09-23T08:33:19.662Z,335
2022-09-23T08:35:16.310Z,340
2022-09-23T08:36:07.874Z,345
2022-09-23T08:37:16.751Z,351
2022-09-23T08:38:16.206Z,341
2022-09-23T08:39:16.591Z,348
2022-09-23T08:40:16.503Z,351
2022-09-23T08:41:16.018Z,349
2022-09-23T08:43:07.762Z,350
2022-09-23T08:44:08.017Z,355
2022-09-23T08:45:15.807Z,357
2022-09-23T08:47:07.361Z,351
2022-09-23T08:48:17.310Z,355
2022-09-23T08:49:07.215Z,356
2022-09-23T08:50:15.633Z,352
2022-09-23T08:51:16.705Z,362
2022-09-23T08:52:15.928Z,352
2022-09-23T08:53:16.129Z,350
2022-09-23T08:54:16.819Z,336
2022-09-23T08:55:16.309Z,341
2022-09-23T08:56:15.830Z,344
2022-09-23T08:57:16.295Z,347
2022-09-23T08:58:28.992Z,354
2022-09-23T08:59:07.849Z,359
2022-09-23T09:00:06.670Z,353
2022-09-23T09:01:16.075Z,355
2022-09-23T09:02:15.986Z,359
2022-09-23T09:03:16.060Z,352
2022-09-23T09:04:16.073Z,348
2022-09-23T09:05:16.291Z,343
2022-09-23T09:07:39.618Z,341
2022-09-23T09:08:16.194Z,352
2022-09-23T09:10:16.658Z,347
2022-09-23T09:11:16.180Z,344
2022-09-23T09:12:15.635Z,348
2022-09-23T09:13:16.238Z,353
2022-09-23T09:14:15.953Z,355
2022-09-23T09:15:16.036Z,364
2022-09-23T09:16:16.309Z,365
2022-09-23T09:17:16.129Z,356
2022-09-23T09:18:15.651Z,348
2022-09-23T09:19:15.474Z,350
2022-09-23T09:20:07.116Z,352
2022-09-23T09:21:07.653Z,346
2022-09-23T09:22:07.539Z,340
2022-09-23T09:23:07.353Z,339
2022-09-23T09:24:15.861Z,337
2022-09-23T09:25:16.527Z,334
2022-09-23T09:26:16.483Z,345
2022-09-23T09:27:06.625Z,346
2022-09-23T09:28:15.735Z,345
2022-09-23T09:29:37.613Z,352
2022-09-23T09:30:07.061Z,351
2022-09-23T09:31:08.042Z,347
2022-09-23T09:32:16.137Z,346
2022-09-23T09:33:16.100Z,349
2022-09-23T09:34:15.817Z,354
2022-09-23T09:35:07.739Z,349
2022-09-23T09:36:07.897Z,339
2022-09-23T09:37:15.442Z,347
2022-09-23T09:38:16.043Z,349
2022-09-23T09:39:16.191Z,343
2022-09-23T09:41:07.609Z,349
2022-09-23T09:43:15.903Z,345
2022-09-23T09:44:16.256Z,349
2022-09-23T09:45:15.734Z,350
2022-09-23T09:46:16.734Z,347
2022-09-23T09:47:16.450Z,350
2022-09-23T09:48:15.711Z,349
2022-09-23T09:50:16.308Z,351
2022-09-23T09:51:15.934Z,346
2022-09-23T09:54:14.562Z,352
2022-09-23T09:55:16.605Z,351
2022-09-23T09:56:07.536Z,352
2022-09-23T09:57:16.448Z,359
2022-09-23T09:58:16.118Z,349
2022-09-23T09:59:14.903Z,351
2022-09-23T10:00:15.922Z,348
2022-09-23T10:01:15.635Z,353
2022-09-23T10:02:07.286Z,348
2022-09-23T10:03:15.902Z,356
2022-09-23T10:04:15.642Z,343
2022-09-23T10:05:16.009Z,349
2022-09-23T10:06:15.628Z,353
2022-09-23T10:07:16.167Z,342
2022-09-23T10:08:15.530Z,340
2022-09-23T10:09:14.693Z,341
2022-09-23T10:10:35.205Z,347
2022-09-23T10:11:07.304Z,358
2022-09-23T10:12:16.260Z,352
2022-09-23T10:13:15.664Z,359
2022-09-23T10:14:15.535Z,353
2022-09-23T10:15:15.977Z,339
2022-09-23T10:16:16.747Z,332
2022-09-23T10:18:15.643Z,344
2022-09-23T10:19:16.168Z,340
2022-09-23T10:20:15.931Z,341
2022-09-23T10:21:15.772Z,338
2022-09-23T10:22:16.030Z,348
2022-09-23T10:23:15.813Z,347
2022-09-23T10:24:15.384Z,350
2022-09-23T10:25:16.232Z,344
2022-09-23T10:26:15.099Z,335
2022-09-23T10:27:07.668Z,336
2022-09-23T10:28:15.206Z,344
2022-09-23T10:29:16.434Z,339
2022-09-23T10:30:15.946Z,338
2022-09-23T10:31:15.910Z,350
2022-09-23T10:32:16.364Z,349
2022-09-23T10:33:16.074Z,355
2022-09-23T10:34:16.044Z,353
2022-09-23T10:35:16.550Z,348
2022-09-23T10:36:07.139Z,340
2022-09-23T10:37:15.951Z,337
2022-09-23T10:38:16.390Z,348
2022-09-23T10:39:16.099Z,352
2022-09-23T10:40:16.643Z,350
2022-09-23T10:41:16.149Z,348
2022-09-23T10:42:15.404Z,345
2022-09-23T10:43:16.853Z,343
2022-09-23T10:44:16.187Z,357
2022-09-23T10:45:15.908Z,347
2022-09-23T10:46:16.187Z,351
2022-09-23T10:47:16.120Z,345
2022-09-23T10:48:06.736Z,352
2022-09-23T10:49:15.037Z,354
2022-09-23T10:50:16.046Z,359
2022-09-23T10:51:16.054Z,352
2022-09-23T10:52:15.415Z,354
2022-09-23T10:53:16.494Z,337
2022-09-23T10:54:07.087Z,332
2022-09-23T10:55:16.224Z,344
2022-09-23T10:56:15.894Z,341
2022-09-23T10:57:16.935Z,333
2022-09-23T10:58:06.811Z,327
2022-09-23T10:59:07.629Z,332
2022-09-23T11:01:15.928Z,343
2022-09-23T11:02:15.872Z,354
2022-09-23T11:03:16.270Z,359
2022-09-23T11:04:16.038Z,356
2022-09-23T11:05:07.047Z,348
2022-09-23T11:06:15.674Z,337
2022-09-23T11:07:07.802Z,338
2022-09-23T11:08:15.295Z,351
2022-09-23T11:09:16.016Z,353
2022-09-23T11:10:18.462Z,352
2022-09-23T11:11:16.051Z,353
2022-09-23T11:12:15.719Z,349
2022-09-23T11:13:16.068Z,344
2022-09-23T11:14:15.113Z,345
2022-09-23T11:15:16.419Z,348
2022-09-23T11:16:15.468Z,340
2022-09-23T11:17:15.687Z,334
2022-09-23T11:18:16.330Z,340
2022-09-23T11:19:16.197Z,334
2022-09-23T11:20:15.707Z,350
2022-09-23T11:21:16.525Z,345
2022-09-23T11:22:06.771Z,339
2022-09-23T11:23:16.233Z,343
2022-09-23T11:24:15.358Z,345
2022-09-23T11:25:16.414Z,342
2022-09-23T11:26:07.826Z,338
2022-09-23T11:27:08.154Z,340
2022-09-23T11:28:15.435Z,326
2022-09-23T11:29:16.362Z,322
2022-09-23T11:30:15.936Z,332
2022-09-23T11:31:15.923Z,340
2022-09-23T11:32:07.553Z,333
2022-09-23T11:33:15.803Z,338
2022-09-23T11:35:16.361Z,342
2022-09-23T11:36:18.602Z,353
2022-09-23T11:37:16.423Z,345
2022-09-23T11:38:16.179Z,349
2022-09-23T11:39:16.515Z,345
2022-09-23T11:40:16.277Z,356
2022-09-23T11:41:16.020Z,351
2022-09-23T11:42:16.149Z,350
2022-09-23T11:43:15.903Z,353
2022-09-23T11:44:16.580Z,349
2022-09-23T11:45:16.075Z,367
2022-09-23T11:46:15.339Z,365
2022-09-23T11:47:16.418Z,355
2022-09-23T11:48:15.814Z,351
2022-09-23T11:49:15.061Z,348
2022-09-23T11:50:16.588Z,340
2022-09-23T11:51:07.437Z,338
2022-09-23T11:52:15.774Z,345
2022-09-23T11:53:15.774Z,347
2022-09-23T11:55:16.674Z,352
2022-09-23T11:56:24.489Z,350
2022-09-23T11:57:16.914Z,351
2022-09-23T11:58:26.336Z,352
2022-09-23T11:59:16.242Z,355
2022-09-23T12:00:16.642Z,363
2022-09-23T12:01:16.809Z,350
2022-09-23T12:02:28.170Z,337
2022-09-23T12:03:08.030Z,343
2022-09-23T12:04:22.211Z,345
2022-09-23T12:05:16.220Z,329
2022-09-23T12:06:16.271Z,336
2022-09-23T12:07:15.412Z,332
2022-09-23T12:08:16.064Z,333
2022-09-23T12:10:16.051Z,336
2022-09-23T12:11:15.733Z,328
2022-09-23T12:12:07.622Z,340
2022-09-23T12:13:16.627Z,339
2022-09-23T12:15:16.209Z,345
2022-09-23T12:16:16.541Z,342
2022-09-23T12:17:07.590Z,339
2022-09-23T12:19:15.535Z,338
2022-09-23T12:20:16.167Z,337
2022-09-23T12:21:38.692Z,356
2022-09-23T12:29:29.792Z,353
2022-09-23T12:29:38.818Z,356
2022-09-23T12:29:44.873Z,350
2022-09-23T12:29:47.601Z,338
2022-09-23T12:29:59.841Z,349
2022-09-23T12:30:14.154Z,337
2022-09-23T12:30:23.551Z,336
2022-09-23T12:31:16.379Z,353
2022-09-23T12:32:16.082Z,349
2022-09-23T12:33:15.792Z,343
2022-09-23T12:34:16.482Z,342
2022-09-23T12:35:15.988Z,337
2022-09-23T12:37:21.477Z,333
2022-09-23T12:38:15.565Z,341
2022-09-23T12:39:15.426Z,336
2022-09-23T12:40:20.083Z,330
2022-09-23T12:41:15.852Z,337
2022-09-23T12:42:16.553Z,340
2022-09-23T12:43:07.956Z,326
2022-09-23T12:44:15.573Z,332
2022-09-23T12:45:22.765Z,339
2022-09-23T12:46:15.643Z,346
2022-09-23T12:48:21.263Z,342
2022-09-23T12:49:06.941Z,349
2022-09-23T12:50:07.255Z,343
2022-09-23T12:51:16.638Z,329
2022-09-23T12:52:15.951Z,336
2022-09-23T12:53:15.553Z,340
2022-09-23T12:54:20.837Z,335
2022-09-23T12:55:16.383Z,333
2022-09-23T12:56:15.290Z,343
2022-09-23T12:57:16.770Z,338
2022-09-23T12:58:15.625Z,327
2022-09-23T12:59:15.669Z,328
2022-09-23T13:01:16.042Z,331
2022-09-23T13:02:08.389Z,334
2022-09-23T13:03:15.755Z,337
2022-09-23T13:05:16.689Z,338
2022-09-23T13:07:16.258Z,342
2022-09-23T13:09:20.632Z,347
2022-09-23T13:10:07.221Z,333
2022-09-23T13:11:21.156Z,315
2022-09-23T13:12:15.207Z,338
2022-09-23T13:13:21.269Z,343
2022-09-23T13:14:15.053Z,352
2022-09-23T13:15:08.396Z,344
2022-09-23T13:16:07.546Z,356
2022-09-23T13:17:16.576Z,358
2022-09-23T13:18:07.540Z,353
2022-09-23T13:19:15.936Z,344
2022-09-23T13:20:20.807Z,347
2022-09-23T13:21:16.599Z,351
2022-09-23T13:22:15.792Z,342
2022-09-23T13:23:15.869Z,344
2022-09-23T13:24:15.175Z,351
2022-09-23T13:25:21.452Z,360
2022-09-23T13:26:15.902Z,349
2022-09-23T13:27:16.339Z,341
2022-09-23T13:28:20.977Z,351
2022-09-23T13:29:20.899Z,350
2022-09-23T13:30:25.951Z,347
2022-09-23T13:31:21.443Z,348
2022-09-23T13:32:15.744Z,343
2022-09-23T13:33:16.254Z,339
2022-09-23T13:34:20.847Z,337
2022-09-23T13:35:20.831Z,340
2022-09-23T13:36:21.729Z,335
2022-09-23T13:37:18.957Z,344
2022-09-23T13:38:16.226Z,354
2022-09-23T13:39:16.149Z,347
2022-09-23T13:40:15.944Z,343
2022-09-23T13:41:21.723Z,336
2022-09-23T13:42:16.262Z,320
2022-09-23T13:43:15.796Z,332
2022-09-23T13:44:16.708Z,340
2022-09-23T13:45:16.256Z,353
2022-09-23T13:46:15.782Z,345
2022-09-23T13:47:16.245Z,341
2022-09-23T13:48:16.000Z,337
2022-09-23T13:49:16.419Z,345
2022-09-23T13:50:21.198Z,344
2022-09-23T13:51:07.486Z,346
2022-09-23T13:52:15.721Z,343
2022-09-23T13:54:15.362Z,344
2022-09-23T13:55:15.996Z,346
2022-09-23T13:56:07.110Z,344
2022-09-23T13:57:07.371Z,346
2022-09-23T13:58:15.985Z,353
2022-09-23T13:59:15.839Z,348
2022-09-23T14:00:16.125Z,351
2022-09-23T14:01:16.224Z,350
2022-09-23T14:02:16.653Z,355
2022-09-23T14:03:16.499Z,351
2022-09-23T14:04:15.901Z,346
2022-09-23T14:05:16.783Z,341
2022-09-23T14:06:16.196Z,348
2022-09-23T14:07:15.838Z,353
2022-09-23T14:08:16.294Z,342
2022-09-23T14:09:07.590Z,338
2022-09-23T14:10:07.546Z,334
2022-09-23T14:11:16.275Z,335
2022-09-23T14:12:15.311Z,341
2022-09-23T14:13:16.733Z,349
2022-09-23T14:14:16.266Z,350
2022-09-23T14:15:15.814Z,357
2022-09-23T14:16:07.496Z,346
2022-09-23T14:17:07.293Z,332
2022-09-23T14:18:07.358Z,334
2022-09-23T14:19:16.249Z,339
2022-09-23T14:20:15.435Z,341
2022-09-23T14:21:16.519Z,347
2022-09-23T14:22:16.820Z,365
2022-09-23T14:23:15.433Z,354
2022-09-23T14:24:16.465Z,340
2022-09-23T14:25:16.034Z,350
2022-09-23T14:26:07.394Z,341
2022-09-23T14:27:15.873Z,330
2022-09-23T14:28:16.189Z,340
2022-09-23T14:29:07.376Z,337
2022-09-23T14:31:15.617Z,334
2022-09-23T14:32:15.675Z,338
2022-09-23T14:33:08.786Z,336
2022-09-23T14:34:15.340Z,345
2022-09-23T14:35:15.745Z,350
2022-09-23T14:36:16.325Z,348
2022-09-23T14:37:16.377Z,344
2022-09-23T14:38:07.455Z,348
2022-09-23T14:39:07.791Z,342
2022-09-23T14:40:16.424Z,338
2022-09-23T14:41:16.294Z,342
2022-09-23T14:42:16.009Z,336
2022-09-23T14:43:07.623Z,329
2022-09-23T14:44:15.409Z,341